createdAt,value
2019-02-19T00:01:00.860Z,6.00
2019-02-19T00:03:29.933Z,5.67
2019-02-19T00:06:00.351Z,4.97
2019-02-19T00:08:29.476Z,5.30
2019-02-19T00:11:00.086Z,5.93
2019-02-19T00:13:29.166Z,5.30
2019-02-19T00:15:58.236Z,4.97
2019-02-19T00:18:27.476Z,5.97
2019-02-19T00:20:56.592Z,5.40
2019-02-19T00:23:25.702Z,5.63
2019-02-19T00:25:54.777Z,5.40
2019-02-19T00:28:24.001Z,6.17
2019-02-19T00:30:53.096Z,5.20
2019-02-19T00:33:22.231Z,5.87
2019-02-19T00:35:51.358Z,5.23
2019-02-19T00:38:20.794Z,5.73
2019-02-19T00:40:52.392Z,5.87
2019-02-19T00:43:30.520Z,6.67
2019-02-19T00:46:00.730Z,6.20
2019-02-19T00:48:30.233Z,6.83
2019-02-19T00:50:59.518Z,6.87
2019-02-19T00:53:28.929Z,7.23
2019-02-19T00:56:00.737Z,6.43
2019-02-19T00:58:29.867Z,6.17
2019-02-19T01:00:59.031Z,6.40
2019-02-19T01:03:28.155Z,7.00
2019-02-19T01:05:57.380Z,6.80
2019-02-19T01:08:26.495Z,6.60
2019-02-19T01:10:55.587Z,6.50
2019-02-19T01:13:24.755Z,6.93
2019-02-19T01:15:53.803Z,6.00
2019-02-19T01:18:22.983Z,5.87
2019-02-19T01:20:53.625Z,6.23
2019-02-19T01:23:22.772Z,6.50
2019-02-19T01:25:51.835Z,6.77
2019-02-19T01:28:21.002Z,6.10
2019-02-19T01:30:50.153Z,6.27
2019-02-19T01:33:19.256Z,5.57
2019-02-19T01:35:48.356Z,5.57
2019-02-19T01:38:19.634Z,6.07
2019-02-19T01:40:48.700Z,5.90
2019-02-19T01:43:17.851Z,5.80
2019-02-19T01:45:46.987Z,5.97
2019-02-19T01:48:16.098Z,6.20
2019-02-19T01:50:47.238Z,5.27
2019-02-19T01:53:17.517Z,5.77
2019-02-19T01:55:46.601Z,5.87
2019-02-19T01:58:15.666Z,5.47
2019-02-19T02:00:44.755Z,5.60
2019-02-19T02:03:13.850Z,5.77
2019-02-19T02:05:44.141Z,5.97
2019-02-19T02:08:13.188Z,6.33
2019-02-19T02:10:42.362Z,5.77
2019-02-19T02:13:11.412Z,6.40
2019-02-19T02:15:42.771Z,6.33
2019-02-19T02:18:11.298Z,6.70
2019-02-19T02:20:43.176Z,6.97
2019-02-19T02:23:12.323Z,6.93
2019-02-19T02:25:42.641Z,5.67
2019-02-19T02:28:11.727Z,5.37
2019-02-19T02:30:40.861Z,5.37
2019-02-19T02:33:09.946Z,6.37
2019-02-19T02:35:39.101Z,5.17
2019-02-19T02:38:08.175Z,6.80
2019-02-19T02:40:37.312Z,5.87
2019-02-19T02:43:06.418Z,7.20
2019-02-19T02:45:35.651Z,6.20
2019-02-19T02:48:04.796Z,5.50
2019-02-19T02:50:33.916Z,6.00
2019-02-19T02:53:03.031Z,6.07
2019-02-19T02:55:32.156Z,7.07
2019-02-19T02:58:01.261Z,7.90
2019-02-19T03:00:30.439Z,7.30
2019-02-19T03:02:59.521Z,6.60
2019-02-19T03:05:30.411Z,5.97
2019-02-19T03:08:02.678Z,6.37
2019-02-19T03:10:31.868Z,6.17
2019-02-19T03:13:00.947Z,6.43
2019-02-19T03:15:31.434Z,5.80
2019-02-19T03:18:00.562Z,6.33
2019-02-19T03:20:29.722Z,6.97
2019-02-19T03:22:58.834Z,6.53
2019-02-19T03:25:27.943Z,7.20
2019-02-19T03:27:57.127Z,7.40
2019-02-19T03:30:29.985Z,8.07
2019-02-19T03:33:00.442Z,7.13
2019-02-19T03:35:30.896Z,7.20
2019-02-19T03:37:59.992Z,6.57
2019-02-19T03:40:29.776Z,6.13
2019-02-19T03:43:00.575Z,6.80
2019-02-19T03:45:29.985Z,7.27
2019-02-19T03:47:59.097Z,7.80
2019-02-19T03:50:31.217Z,7.10
2019-02-19T03:53:00.365Z,7.27
2019-02-19T03:55:29.447Z,7.13
2019-02-19T03:57:58.628Z,7.73
2019-02-19T04:00:27.729Z,7.63
2019-02-19T04:02:56.922Z,7.10
2019-02-19T04:05:27.092Z,7.20
2019-02-19T04:07:56.280Z,7.03
2019-02-19T04:10:25.453Z,6.80
2019-02-19T04:12:54.627Z,7.57
2019-02-19T04:15:23.861Z,6.83
2019-02-19T04:17:52.926Z,6.93
2019-02-19T04:20:22.021Z,7.17
2019-02-19T04:22:51.222Z,7.23
2019-02-19T04:25:24.441Z,6.60
2019-02-19T04:27:54.676Z,6.80
2019-02-19T04:30:23.808Z,7.40
2019-02-19T04:32:52.944Z,7.53
2019-02-19T04:35:24.973Z,7.10
2019-02-19T04:37:54.159Z,7.27
2019-02-19T04:40:23.228Z,7.00
2019-02-19T04:42:53.318Z,7.03
2019-02-19T04:45:23.733Z,7.57
2019-02-19T04:47:52.816Z,7.30
2019-02-19T04:50:21.982Z,6.63
2019-02-19T04:52:52.701Z,5.77
2019-02-19T04:55:23.799Z,6.60
2019-02-19T04:57:52.890Z,6.87
2019-02-19T05:00:23.197Z,6.63
2019-02-19T05:02:52.349Z,7.70
2019-02-19T05:05:21.493Z,7.60
2019-02-19T05:07:50.623Z,7.57
2019-02-19T05:10:19.703Z,7.33
2019-02-19T05:12:50.836Z,6.83
2019-02-19T05:15:19.947Z,7.87
2019-02-19T05:17:49.002Z,7.30
2019-02-19T05:20:18.109Z,6.57
2019-02-19T05:22:47.239Z,7.17
2019-02-19T05:25:18.373Z,7.40
2019-02-19T05:27:47.439Z,6.60
2019-02-19T05:30:16.603Z,7.87
2019-02-19T05:32:45.731Z,6.67
2019-02-19T05:35:14.919Z,7.20
2019-02-19T05:37:44.050Z,6.70
2019-02-19T05:40:13.132Z,6.23
2019-02-19T05:42:42.283Z,7.83
2019-02-19T05:45:11.435Z,7.13
2019-02-19T05:47:40.549Z,10.40
2019-02-19T05:50:09.812Z,14.80
2019-02-19T05:52:38.870Z,28.10
2019-02-19T05:55:08.018Z,25.80
2019-02-19T05:57:37.115Z,25.10
2019-02-19T06:00:06.990Z,19.30
2019-02-19T06:02:36.169Z,18.27
2019-02-19T06:05:06.080Z,21.73
2019-02-19T06:07:35.150Z,20.63
2019-02-19T06:10:04.826Z,21.47
2019-02-19T06:12:36.030Z,19.57
2019-02-19T06:15:06.202Z,17.70
2019-02-19T06:17:35.442Z,22.03
2019-02-19T06:20:06.093Z,19.17
2019-02-19T06:22:35.203Z,19.90
2019-02-19T06:25:05.807Z,17.80
2019-02-19T06:27:34.967Z,19.10
2019-02-19T06:30:04.138Z,25.63
2019-02-19T06:32:33.235Z,24.83
2019-02-19T06:35:04.597Z,20.93
2019-02-19T06:37:33.693Z,20.33
2019-02-19T06:40:02.817Z,23.93
2019-02-19T06:42:31.985Z,25.20
2019-02-19T06:45:03.981Z,28.10
2019-02-19T06:47:33.069Z,26.37
2019-02-19T06:50:02.197Z,25.50
2019-02-19T06:52:31.635Z,23.47
2019-02-19T06:55:02.320Z,23.47
2019-02-19T06:57:33.784Z,25.17
2019-02-19T07:00:04.758Z,27.03
2019-02-19T07:02:40.229Z,25.70
2019-02-19T07:05:19.569Z,29.37
2019-02-19T07:07:48.753Z,31.53
2019-02-19T07:10:19.082Z,26.07
2019-02-19T07:12:50.751Z,24.33
2019-02-19T07:15:21.520Z,20.97
2019-02-19T07:17:50.605Z,21.33
2019-02-19T07:20:20.937Z,56.57
2019-02-19T07:22:53.972Z,28.90
2019-02-19T07:25:24.613Z,27.13
2019-02-19T07:27:53.716Z,24.47
2019-02-19T07:30:24.293Z,22.83
2019-02-19T07:32:53.430Z,21.43
2019-02-19T07:35:24.785Z,21.73
2019-02-19T07:37:57.767Z,20.73
2019-02-19T07:40:32.997Z,20.47
2019-02-19T07:43:02.133Z,19.17
2019-02-19T07:45:31.224Z,19.70
2019-02-19T07:48:00.344Z,17.37
2019-02-19T07:50:29.746Z,16.80
2019-02-19T07:52:58.865Z,15.43
2019-02-19T07:55:30.500Z,14.53
2019-02-19T07:57:59.645Z,15.60
2019-02-19T08:00:28.776Z,16.20
2019-02-19T08:02:57.891Z,15.53
2019-02-19T08:05:27.089Z,16.30
2019-02-19T08:07:58.974Z,14.83
2019-02-19T08:10:30.414Z,16.30
2019-02-19T08:12:59.487Z,15.43
2019-02-19T08:15:28.589Z,17.27
2019-02-19T08:17:57.652Z,16.00
2019-02-19T08:20:28.928Z,15.80
2019-02-19T08:22:58.017Z,15.40
2019-02-19T08:25:27.124Z,16.03
2019-02-19T08:27:56.204Z,15.57
2019-02-19T08:30:25.283Z,14.83
2019-02-19T08:32:54.403Z,15.17
2019-02-19T08:35:23.509Z,15.63
2019-02-19T08:37:52.574Z,16.57
2019-02-19T08:40:21.681Z,15.57
2019-02-19T08:42:50.829Z,15.07
2019-02-19T08:45:19.871Z,15.53
2019-02-19T08:47:48.991Z,15.47
2019-02-19T08:50:21.933Z,15.97
2019-02-19T08:52:51.035Z,15.97
2019-02-19T08:55:20.096Z,16.27
2019-02-19T08:57:49.186Z,14.70
2019-02-19T09:00:19.471Z,14.70
2019-02-19T09:02:48.605Z,14.60
2019-02-19T09:05:17.765Z,14.43
2019-02-19T09:07:46.907Z,13.67
2019-02-19T09:10:16.038Z,13.37
2019-02-19T09:12:46.538Z,14.13
2019-02-19T09:15:16.831Z,14.47
2019-02-19T09:17:52.051Z,13.50
2019-02-19T09:20:17.982Z,14.03
2019-02-19T09:22:47.049Z,15.60
2019-02-19T09:25:16.278Z,13.60
2019-02-19T09:27:45.339Z,12.13
2019-02-19T09:30:14.537Z,12.27
2019-02-19T09:32:43.587Z,13.07
2019-02-19T09:35:12.709Z,13.27
2019-02-19T09:37:41.819Z,13.73
2019-02-19T09:40:10.933Z,15.07
2019-02-19T09:42:40.229Z,12.67
2019-02-19T09:45:09.424Z,11.73
2019-02-19T09:47:38.481Z,11.07
2019-02-19T09:50:08.453Z,10.70
2019-02-19T09:52:37.526Z,11.40
2019-02-19T09:55:09.193Z,12.70
2019-02-19T09:57:38.337Z,11.17
2019-02-19T10:00:09.137Z,11.27
2019-02-19T10:02:38.178Z,11.87
2019-02-19T10:05:08.799Z,10.83
2019-02-19T10:07:37.907Z,10.57
2019-02-19T10:10:11.246Z,10.40
2019-02-19T10:12:41.873Z,11.00
2019-02-19T10:15:12.159Z,11.10
2019-02-19T10:17:41.253Z,11.13
2019-02-19T10:20:13.421Z,10.87
2019-02-19T10:22:42.689Z,11.70
2019-02-19T10:25:12.547Z,10.73
2019-02-19T10:27:41.594Z,10.80
2019-02-19T10:30:13.730Z,12.50
2019-02-19T10:32:42.843Z,11.57
2019-02-19T10:35:12.215Z,13.33
2019-02-19T10:37:41.283Z,11.17
2019-02-19T10:40:12.490Z,11.17
2019-02-19T10:42:41.520Z,12.77
2019-02-19T10:45:13.041Z,15.30
2019-02-19T10:47:42.293Z,11.43
2019-02-19T10:50:12.995Z,11.57
2019-02-19T10:52:42.175Z,10.63
2019-02-19T10:55:11.412Z,10.27
2019-02-19T10:57:44.769Z,10.47
2019-02-19T11:00:16.995Z,10.93
2019-02-19T11:02:46.112Z,10.67
2019-02-19T11:05:17.329Z,11.00
2019-02-19T11:07:46.687Z,10.60
2019-02-19T11:10:15.869Z,9.57
2019-02-19T11:12:46.326Z,11.20
2019-02-19T11:15:17.326Z,10.53
2019-02-19T11:17:46.789Z,9.97
2019-02-19T11:20:15.948Z,10.00
2019-02-19T11:22:45.130Z,9.33
2019-02-19T11:25:14.911Z,11.53
2019-02-19T11:27:44.182Z,8.67
2019-02-19T11:30:14.983Z,9.97
2019-02-19T11:32:44.295Z,9.77
2019-02-19T11:35:15.625Z,10.00
2019-02-19T11:37:44.850Z,10.07
2019-02-19T11:40:15.113Z,8.87
2019-02-19T11:42:44.231Z,9.03
2019-02-19T11:45:14.057Z,8.47
2019-02-19T11:47:43.175Z,7.40
2019-02-19T11:50:13.943Z,4.20
2019-02-19T11:52:43.346Z,3.33
2019-02-19T11:55:13.046Z,3.03
2019-02-19T11:57:43.156Z,3.03
2019-02-19T12:00:15.472Z,2.70
2019-02-19T12:02:44.678Z,3.40
2019-02-19T12:05:13.886Z,2.90
2019-02-19T12:07:43.006Z,2.73
2019-02-19T12:10:12.292Z,2.87
2019-02-19T12:12:45.067Z,3.03
2019-02-19T12:15:14.204Z,3.03
2019-02-19T12:17:44.392Z,3.80
2019-02-19T12:20:14.725Z,3.67
2019-02-19T12:22:43.867Z,3.10
2019-02-19T12:25:14.054Z,3.40
2019-02-19T12:27:43.254Z,3.27
2019-02-19T12:30:13.161Z,3.70
2019-02-19T12:32:42.437Z,3.23
2019-02-19T12:35:13.788Z,3.30
2019-02-19T12:37:42.916Z,3.67
2019-02-19T12:40:12.013Z,3.17
2019-02-19T12:42:41.129Z,2.70
2019-02-19T12:45:10.950Z,3.23
2019-02-19T12:47:40.130Z,2.80
2019-02-19T12:50:10.971Z,3.30
2019-02-19T12:52:40.304Z,2.87
2019-02-19T12:55:10.290Z,2.70
2019-02-19T12:57:39.401Z,2.60
2019-02-19T13:00:13.446Z,2.43
2019-02-19T13:02:44.034Z,2.10
2019-02-19T13:05:13.605Z,1.90
2019-02-19T13:07:44.582Z,2.23
2019-02-19T13:10:14.621Z,1.70
2019-02-19T13:12:45.843Z,1.63
2019-02-19T13:15:15.618Z,1.63
2019-02-19T13:17:44.734Z,1.93
2019-02-19T13:20:14.246Z,1.10
2019-02-19T13:22:43.405Z,1.73
2019-02-19T13:25:12.448Z,2.10
2019-02-19T13:27:41.673Z,2.10
2019-02-19T13:30:13.209Z,2.00
2019-02-19T13:32:43.814Z,1.40
2019-02-19T13:35:13.163Z,1.70
2019-02-19T13:37:43.532Z,1.30
2019-02-19T13:40:13.021Z,1.43
2019-02-19T13:42:42.162Z,1.90
2019-02-19T13:45:12.269Z,1.70
2019-02-19T13:47:41.414Z,1.70
2019-02-19T13:50:13.555Z,1.83
2019-02-19T13:53:04.591Z,2.20
2019-02-19T13:55:39.479Z,1.87
2019-02-19T13:58:08.652Z,1.63
2019-02-19T14:00:39.932Z,2.40
2019-02-19T14:03:09.003Z,2.00
2019-02-19T14:05:38.163Z,2.23
2019-02-19T14:08:14.337Z,2.10
2019-02-19T14:10:38.235Z,2.43
2019-02-19T14:13:07.369Z,2.40
2019-02-19T14:16:00.547Z,2.80
2019-02-19T14:18:48.808Z,2.47
2019-02-19T14:21:46.301Z,2.57
2019-02-19T14:24:43.495Z,3.23
2019-02-19T14:27:20.731Z,2.53
2019-02-19T14:30:10.868Z,2.60
2019-02-19T14:33:05.188Z,2.90
2019-02-19T14:35:51.954Z,2.97
2019-02-19T14:38:52.767Z,2.53
2019-02-19T14:41:53.957Z,2.97
2019-02-19T14:44:43.611Z,2.53
2019-02-19T14:47:39.256Z,2.87
2019-02-19T14:50:27.935Z,2.63
2019-02-19T14:53:33.875Z,2.57
2019-02-19T14:56:40.379Z,2.10
2019-02-19T14:59:27.774Z,2.50
2019-02-19T15:02:17.340Z,2.37
2019-02-19T15:05:24.556Z,2.60
2019-02-19T15:08:12.693Z,3.13
2019-02-19T15:11:00.827Z,2.97
2019-02-19T15:13:53.970Z,2.87
2019-02-19T15:16:54.472Z,3.10
2019-02-19T15:19:39.199Z,2.80
2019-02-19T15:22:44.746Z,2.97
2019-02-19T15:25:44.159Z,2.77
2019-02-19T15:28:35.545Z,2.73
2019-02-19T15:31:22.452Z,2.80
2019-02-19T15:34:13.259Z,2.63
2019-02-19T15:37:00.142Z,2.93
2019-02-19T15:39:54.302Z,3.83
2019-02-19T15:42:40.951Z,3.07
2019-02-19T15:45:31.759Z,2.70
2019-02-19T15:48:22.905Z,2.83
2019-02-19T15:51:02.807Z,3.07
2019-02-19T15:53:53.795Z,2.87
2019-02-19T15:56:47.751Z,3.43
2019-02-19T15:59:34.333Z,3.50
2019-02-19T16:02:17.895Z,3.37
2019-02-19T16:05:12.433Z,3.27
2019-02-19T16:07:51.470Z,3.40
2019-02-19T16:10:35.883Z,3.57
2019-02-19T16:13:12.834Z,3.70
2019-02-19T16:16:06.622Z,3.90
2019-02-19T16:18:57.364Z,4.07
2019-02-19T16:22:00.487Z,3.57
2019-02-19T16:25:05.117Z,4.47
2019-02-19T16:27:53.102Z,4.33
2019-02-19T16:30:47.349Z,3.83
2019-02-19T16:33:23.986Z,3.87
2019-02-19T16:36:27.353Z,3.70
2019-02-19T16:39:10.510Z,4.23
2019-02-19T16:42:00.159Z,3.83
2019-02-19T16:44:40.529Z,3.80
2019-02-19T16:47:31.625Z,3.57
2019-02-19T16:50:26.649Z,4.10
2019-02-19T16:53:30.049Z,8.23
2019-02-19T16:56:20.466Z,7.43
2019-02-19T16:59:14.376Z,4.60
2019-02-19T17:02:02.589Z,3.87
2019-02-19T17:04:49.251Z,3.80
2019-02-19T17:07:35.913Z,3.60
2019-02-19T17:10:23.326Z,3.30
2019-02-19T17:13:21.491Z,3.13
2019-02-19T17:16:24.603Z,3.43
2019-02-19T17:19:11.328Z,3.37
2019-02-19T17:21:47.479Z,3.13
2019-02-19T17:24:53.003Z,3.80
2019-02-19T17:27:51.092Z,2.90
2019-02-19T17:30:38.132Z,3.67
2019-02-19T17:33:21.675Z,3.30
2019-02-19T17:39:16.411Z,14.90
2019-02-19T17:42:01.615Z,34.40
2019-02-19T17:44:50.110Z,31.63
2019-02-19T17:47:49.389Z,18.03
2019-02-19T17:50:40.437Z,6.93
2019-02-19T17:53:27.033Z,4.97
2019-02-19T17:56:21.144Z,4.27
2019-02-19T17:59:07.579Z,3.80
2019-02-19T18:01:57.194Z,3.50
2019-02-19T18:04:48.208Z,3.53
2019-02-19T18:07:42.103Z,5.00
2019-02-19T18:10:45.349Z,7.40
2019-02-19T18:13:21.716Z,7.60
2019-02-19T18:16:10.264Z,9.10
2019-02-19T18:18:49.150Z,8.23
2019-02-19T18:21:25.799Z,7.93
2019-02-19T18:23:54.915Z,8.57
2019-02-19T18:26:25.125Z,7.47
2019-02-19T18:28:55.564Z,8.27
2019-02-19T18:31:24.607Z,7.23
2019-02-19T18:33:54.671Z,7.03
2019-02-19T18:36:23.815Z,7.90
2019-02-19T18:38:55.130Z,9.87
2019-02-19T18:41:24.256Z,12.00
2019-02-19T18:43:53.662Z,10.43
2019-02-19T18:46:22.909Z,10.27
2019-02-19T18:48:53.173Z,9.30
2019-02-19T18:51:22.313Z,9.50
2019-02-19T18:53:51.400Z,17.37
2019-02-19T18:56:20.634Z,9.13
2019-02-19T18:58:49.764Z,7.70
2019-02-19T19:01:19.094Z,7.03
2019-02-19T19:03:48.246Z,7.50
2019-02-19T19:06:19.438Z,8.23
2019-02-19T19:08:48.639Z,7.70
2019-02-19T19:11:18.194Z,7.03
2019-02-19T19:13:47.337Z,7.33
2019-02-19T19:16:20.187Z,6.03
2019-02-19T19:18:50.496Z,6.03
2019-02-19T19:21:20.671Z,5.60
2019-02-19T19:23:49.773Z,4.70
2019-02-19T19:26:18.993Z,5.50
2019-02-19T19:28:48.052Z,4.93
2019-02-19T19:31:20.041Z,5.07
2019-02-19T19:33:49.087Z,11.03
2019-02-19T19:36:18.197Z,12.43
2019-02-19T19:38:47.272Z,6.63
2019-02-19T19:41:16.393Z,6.20
2019-02-19T19:43:45.435Z,11.87
2019-02-19T19:46:14.567Z,24.90
2019-02-19T19:48:43.617Z,10.90
2019-02-19T19:51:17.391Z,6.67
2019-02-19T19:53:44.641Z,6.17
2019-02-19T19:56:13.757Z,5.83
2019-02-19T19:58:43.897Z,4.97
2019-02-19T20:01:13.082Z,5.00
2019-02-19T20:03:42.117Z,4.70
2019-02-19T20:06:13.497Z,5.73
2019-02-19T20:08:42.553Z,6.13
2019-02-19T20:11:11.977Z,7.33
2019-02-19T20:13:41.106Z,9.83
2019-02-19T20:16:12.462Z,8.57
2019-02-19T20:18:41.643Z,8.73
2019-02-19T20:21:11.089Z,9.13
2019-02-19T20:23:40.473Z,8.37
2019-02-19T20:26:09.684Z,10.90
2019-02-19T20:28:39.078Z,12.20
2019-02-19T20:31:08.133Z,11.70
2019-02-19T20:33:37.954Z,10.63
2019-02-19T20:36:07.253Z,14.80
2019-02-19T20:38:36.397Z,14.67
2019-02-19T20:41:05.478Z,14.73
2019-02-19T20:43:34.544Z,12.20
2019-02-19T20:46:03.627Z,12.37
2019-02-19T20:48:32.697Z,11.57
2019-02-19T20:51:01.816Z,12.23
2019-02-19T20:53:30.983Z,10.47
2019-02-19T20:56:00.117Z,8.37
2019-02-19T20:58:29.327Z,7.17
2019-02-19T21:00:58.496Z,7.37
2019-02-19T21:03:27.609Z,7.77
2019-02-19T21:05:56.712Z,10.47
2019-02-19T21:08:25.809Z,11.77
2019-02-19T21:10:54.908Z,12.17
2019-02-19T21:13:24.104Z,12.73
2019-02-19T21:15:53.227Z,13.23
2019-02-19T21:18:22.305Z,12.37
2019-02-19T21:20:55.050Z,8.53
2019-02-19T21:23:24.237Z,6.60
2019-02-19T21:25:54.426Z,7.10
2019-02-19T21:28:24.771Z,7.33
2019-02-19T21:30:54.125Z,7.13
2019-02-19T21:33:23.302Z,7.97
2019-02-19T21:35:52.831Z,10.00
2019-02-19T21:38:23.026Z,10.40
2019-02-19T21:40:53.907Z,9.30
2019-02-19T21:43:23.031Z,8.90
2019-02-19T21:45:52.177Z,9.73
2019-02-19T21:48:21.293Z,8.27
2019-02-19T21:50:50.357Z,7.67
2019-02-19T21:53:19.461Z,9.37
2019-02-19T21:55:50.786Z,10.60
2019-02-19T21:58:19.905Z,11.60
2019-02-19T22:00:49.072Z,9.70
2019-02-19T22:03:18.186Z,8.77
2019-02-19T22:05:47.271Z,9.00
2019-02-19T22:08:16.320Z,9.63
2019-02-19T22:10:45.443Z,10.53
2019-02-19T22:13:14.536Z,9.73
2019-02-19T22:15:43.695Z,9.10
2019-02-19T22:18:12.842Z,9.43
2019-02-19T22:20:52.656Z,8.33
2019-02-19T22:23:21.713Z,8.50
2019-02-19T22:25:50.771Z,9.50
2019-02-19T22:28:22.970Z,8.70
2019-02-19T22:30:52.182Z,7.87
2019-02-19T22:33:21.277Z,8.47
2019-02-19T22:35:50.369Z,8.27
2019-02-19T22:38:19.463Z,9.03
2019-02-19T22:40:54.934Z,8.47
2019-02-19T22:43:19.411Z,8.33
2019-02-19T22:45:48.566Z,7.60
2019-02-19T22:48:17.586Z,8.20
2019-02-19T22:50:46.741Z,8.40
2019-02-19T22:53:42.397Z,8.20
2019-02-19T22:56:21.294Z,7.83
2019-02-19T22:58:52.159Z,9.03
2019-02-19T23:01:39.638Z,8.90
2019-02-19T23:04:08.754Z,8.40
2019-02-19T23:06:39.345Z,8.63
2019-02-19T23:09:08.501Z,8.93
2019-02-19T23:11:37.583Z,7.87
2019-02-19T23:14:06.609Z,7.63
2019-02-19T23:16:35.744Z,9.00
2019-02-19T23:19:04.848Z,9.20
2019-02-19T23:21:33.968Z,8.60
2019-02-19T23:24:03.056Z,9.87
2019-02-19T23:26:33.697Z,9.17
2019-02-19T23:29:02.791Z,9.23
2019-02-19T23:31:31.878Z,9.20
2019-02-19T23:34:01.017Z,9.90
2019-02-19T23:37:04.324Z,8.27
2019-02-19T23:39:43.659Z,9.37
2019-02-19T23:42:09.061Z,8.40
2019-02-19T23:44:38.215Z,8.17
2019-02-19T23:47:07.295Z,7.40
2019-02-19T23:49:36.398Z,8.00
2019-02-19T23:52:05.527Z,7.67
2019-02-19T23:54:34.593Z,7.33
2019-02-19T23:57:03.740Z,7.20
2019-02-19T23:59:32.843Z,7.90
